Time,TemperatureF,DewpointF,PressureIn,WindDirection,WindDirectionDegrees,WindSpeedMPH,WindSpeedGustMPH,Humidity,HourlyPrecipIn,Conditions,Clouds,dailyrainin,SolarRadiationWatts/m^2,SoftwareType,DateUTC
2013-02-12 00:00:00,21.9,18.4,29.99,NW,308,0.0,0.0,86,0.00,RA,,0.00,0.0,WeatherDisplay:10.37,2013-02-12 06:00:00,
2013-02-12 00:05:00,21.9,18.6,29.99,NW,308,0.0,0.0,87,0.00,RA,,0.00,0.0,WeatherDisplay:10.37,2013-02-12 06:05:00,
2013-02-12 00:10:00,21.9,18.6,29.99,NW,308,1.1,1.1,87,0.00,OVC,,0.00,0.0,WeatherDisplay:10.37,2013-02-12 06:10:00,
2013-02-12 00:15:00,21.9,18.6,30.00,NW,308,0.0,0.0,87,0.00,OVC,,0.00,0.0,WeatherDisplay:10.37,2013-02-12 06:15:00,
2013-02-12 00:20:00,22.0,19.0,29.99,NW,308,0.0,0.0,88,0.00,OVC,,0.00,0.0,WeatherDisplay:10.37,2013-02-12 06:20:00,
2013-02-12 00:25:00,22.0,19.0,29.99,NW,309,0.0,0.0,88,0.00,OVC,,0.00,0.0,WeatherDisplay:10.37,2013-02-12 06:25:00,
2013-02-12 00:30:00,21.8,18.5,30.00,WSW,257,2.3,2.3,87,0.00,OVC,,0.00,0.0,WeatherDisplay:10.37,2013-02-12 06:30:00,
2013-02-12 00:35:00,21.7,18.4,29.99,SSW,198,0.0,0.0,87,0.00,OVC,,0.00,0.0,WeatherDisplay:10.37,2013-02-12 06:35:00,
2013-02-12 00:40:00,21.7,18.2,29.99,WSW,244,1.1,1.1,86,0.00,OVC,,0.00,0.0,WeatherDisplay:10.37,2013-02-12 06:40:00,
2013-02-12 00:45:00,21.7,18.4,29.99,WSW,244,0.0,0.0,87,0.00,OVC,,0.00,0.0,WeatherDisplay:10.37,2013-02-12 06:45:00,
2013-02-12 00:50:00,21.8,18.5,29.99,WSW,244,0.0,0.0,87,0.00,OVC,,0.00,0.0,WeatherDisplay:10.37,2013-02-12 06:50:00,
2013-02-12 00:55:00,21.8,18.5,29.99,WSW,244,0.0,0.0,87,0.00,OVC,,0.00,0.0,WeatherDisplay:10.37,2013-02-12 06:55:00,
2013-02-12 01:00:00,21.8,18.5,29.99,WSW,244,0.0,0.0,87,0.00,OVC,,0.00,0.0,WeatherDisplay:10.37,2013-02-12 07:00:00,
2013-02-12 01:05:00,21.7,18.4,29.99,WSW,244,0.0,0.0,87,0.00,OVC,,0.00,0.0,WeatherDisplay:10.37,2013-02-12 07:05:00,
2013-02-12 01:10:00,21.7,18.7,29.99,WSW,244,0.0,0.0,88,0.00,OVC,,0.00,0.0,WeatherDisplay:10.37,2013-02-12 07:10:00,
2013-02-12 01:15:00,21.7,18.7,29.99,WSW,244,1.1,1.1,88,0.00,OVC,,0.00,0.0,WeatherDisplay:10.37,2013-02-12 07:15:00,
2013-02-12 01:20:00,21.7,18.4,29.99,WSW,244,1.1,0.0,87,0.00,OVC,,0.00,0.0,WeatherDisplay:10.37,2013-02-12 07:20:00,
2013-02-12 01:26:00,21.7,18.7,29.99,WSW,244,0.0,0.0,88,0.00,OVC,,0.00,0.0,WeatherDisplay:10.37,2013-02-12 07:26:00,
2013-02-12 01:31:00,21.8,18.5,29.99,WSW,244,1.1,0.0,87,0.00,OVC,,0.00,0.0,WeatherDisplay:10.37,2013-02-12 07:31:00,
2013-02-12 01:36:00,21.8,18.5,29.98,WSW,244,0.0,0.0,87,0.00,OVC,,0.00,0.0,WeatherDisplay:10.37,2013-02-12 07:36:00,
2013-02-12 01:41:00,21.8,18.5,29.98,WSW,244,0.0,0.0,87,0.00,OVC,,0.00,0.0,WeatherDisplay:10.37,2013-02-12 07:41:00,
2013-02-12 01:46:00,21.8,18.5,29.99,WSW,244,0.0,0.0,87,0.00,OVC,,0.00,0.0,WeatherDisplay:10.37,2013-02-12 07:46:00,
2013-02-12 01:51:00,21.7,18.4,29.99,WSW,244,0.0,0.0,87,0.00,OVC,,0.00,0.0,WeatherDisplay:10.37,2013-02-12 07:51:00,
2013-02-12 01:56:00,21.7,18.4,29.98,WSW,244,2.3,2.3,87,0.00,OVC,,0.00,0.0,WeatherDisplay:10.37,2013-02-12 07:56:00,
2013-02-12 02:01:00,21.6,18.3,29.99,WSW,244,1.1,0.0,87,0.00,OVC,,0.00,0.0,WeatherDisplay:10.37,2013-02-12 08:01:00,
2013-02-12 02:06:00,21.7,18.4,29.99,WSW,244,0.0,0.0,87,0.00,OVC,,0.00,0.0,WeatherDisplay:10.37,2013-02-12 08:06:00,
2013-02-12 02:11:00,21.7,18.4,29.99,WSW,244,0.0,0.0,87,0.00,OVC,,0.00,0.0,WeatherDisplay:10.37,2013-02-12 08:11:00,
2013-02-12 02:16:00,21.8,18.5,29.98,WSW,244,0.0,0.0,87,0.00,-SN,,0.00,0.0,WeatherDisplay:10.37,2013-02-12 08:16:00,
2013-02-12 02:21:00,21.9,18.6,29.99,WSW,244,0.0,0.0,87,0.00,-SN,,0.00,0.0,WeatherDisplay:10.37,2013-02-12 08:21:00,
2013-02-12 02:26:00,21.9,18.6,29.99,WSW,244,0.0,0.0,87,0.00,-SN,,0.00,0.0,WeatherDisplay:10.37,2013-02-12 08:26:00,
2013-02-12 02:31:00,22.0,18.7,29.99,WSW,244,0.0,0.0,87,0.00,-SN,,0.00,0.0,WeatherDisplay:10.37,2013-02-12 08:31:00,
2013-02-12 02:36:00,22.0,18.5,29.99,WSW,244,0.0,0.0,86,0.00,-SN,,0.00,0.0,WeatherDisplay:10.37,2013-02-12 08:36:00,
2013-02-12 02:41:00,22.1,18.6,29.99,WSW,244,0.0,0.0,86,0.00,-SN,,0.00,0.0,WeatherDisplay:10.37,2013-02-12 08:41:00,
2013-02-12 02:46:00,22.1,18.6,29.99,WSW,244,0.0,0.0,86,0.00,-SN,,0.00,0.0,WeatherDisplay:10.37,2013-02-12 08:46:00,
2013-02-12 02:51:00,22.1,18.6,29.99,WSW,241,0.0,0.0,86,0.00,-SN,,0.00,0.0,WeatherDisplay:10.37,2013-02-12 08:51:00,
2013-02-12 02:56:00,22.0,18.5,29.99,WSW,241,0.0,0.0,86,0.00,-SN,,0.00,0.0,WeatherDisplay:10.37,2013-02-12 08:56:00,
2013-02-12 03:01:00,22.1,18.6,29.99,WSW,241,2.0,2.0,86,0.00,-SN,,0.00,0.0,WeatherDisplay:10.37,2013-02-12 09:01:00,
2013-02-12 03:06:00,21.8,18.3,29.99,WSW,241,0.0,0.0,86,0.00,-SN,,0.00,0.0,WeatherDisplay:10.37,2013-02-12 09:06:00,
2013-02-12 03:11:00,21.7,18.2,29.99,WSW,241,0.0,0.0,86,0.00,-SN,,0.00,0.0,WeatherDisplay:10.37,2013-02-12 09:11:00,
2013-02-12 03:16:00,21.7,18.2,29.99,WSW,241,0.0,0.0,86,0.00,-SN,,0.00,0.0,WeatherDisplay:10.37,2013-02-12 09:16:00,
2013-02-12 03:21:00,21.7,18.2,29.99,WSW,241,0.0,0.0,86,0.00,-SN,,0.00,0.0,WeatherDisplay:10.37,2013-02-12 09:21:00,
2013-02-12 03:26:00,21.7,18.2,29.99,WSW,241,0.0,0.0,86,0.00,-SN,,0.00,0.0,WeatherDisplay:10.37,2013-02-12 09:26:00,
2013-02-12 03:31:00,21.5,18.0,29.99,WSW,238,0.0,0.0,86,0.00,-SN,,0.00,0.0,WeatherDisplay:10.37,2013-02-12 09:31:00,
2013-02-12 03:36:00,21.4,17.9,29.99,WSW,238,1.1,0.0,86,0.00,-SN,,0.00,0.0,WeatherDisplay:10.37,2013-02-12 09:36:00,
2013-02-12 03:41:00,21.3,18.0,29.99,WSW,239,1.1,1.1,87,0.00,-SN,,0.00,0.0,WeatherDisplay:10.37,2013-02-12 09:41:00,
2013-02-12 03:46:00,21.1,17.8,29.99,WSW,244,1.1,1.1,87,0.00,-SN,,0.00,0.0,WeatherDisplay:10.37,2013-02-12 09:46:00,
2013-02-12 03:51:00,21.0,17.7,29.99,NNW,332,3.5,3.5,87,0.00,-SN,,0.00,0.0,WeatherDisplay:10.37,2013-02-12 09:51:00,
2013-02-12 03:56:00,20.9,17.6,30.00,NNW,332,1.1,0.0,87,0.00,-SN,,0.00,0.0,WeatherDisplay:10.37,2013-02-12 09:56:00,
2013-02-12 04:01:00,20.9,17.6,30.00,NNW,332,0.0,0.0,87,0.00,-SN,,0.00,0.0,WeatherDisplay:10.37,2013-02-12 10:01:00,
2013-02-12 04:06:00,21.0,18.0,30.00,NW,322,0.0,0.0,88,0.00,-SN,,0.00,0.0,WeatherDisplay:10.37,2013-02-12 10:06:00,
2013-02-12 04:11:00,20.9,17.6,30.00,NW,304,2.0,2.0,87,0.00,-SN,,0.00,0.0,WeatherDisplay:10.37,2013-02-12 10:11:00,
2013-02-12 04:16:00,20.8,17.5,30.00,West,259,3.0,3.0,87,0.00,-SN,,0.00,0.0,WeatherDisplay:10.37,2013-02-12 10:16:00,
2013-02-12 04:21:00,20.6,17.3,30.00,WNW,283,1.1,0.0,87,0.00,-SN,,0.00,0.0,WeatherDisplay:10.37,2013-02-12 10:21:00,
2013-02-12 04:26:00,20.6,17.3,30.00,West,279,0.0,0.0,87,0.00,-SN,,0.00,0.0,WeatherDisplay:10.37,2013-02-12 10:26:00,
2013-02-12 04:31:00,20.6,17.3,30.00,West,271,1.1,0.0,87,0.00,-SN,,0.00,0.0,WeatherDisplay:10.37,2013-02-12 10:31:00,
2013-02-12 04:36:00,20.6,17.3,30.00,West,271,0.0,0.0,87,0.00,-SN,,0.00,0.0,WeatherDisplay:10.37,2013-02-12 10:36:00,
2013-02-12 04:41:00,20.6,17.3,30.00,SW,225,2.3,2.3,87,0.00,-SN,,0.00,0.0,WeatherDisplay:10.37,2013-02-12 10:41:00,
2013-02-12 04:46:00,20.5,17.2,30.00,SW,226,1.1,1.1,87,0.00,-SN,,0.00,0.0,WeatherDisplay:10.37,2013-02-12 10:46:00,
2013-02-12 04:51:00,20.5,17.2,30.00,SW,225,0.0,0.0,87,0.00,-SN,,0.00,0.0,WeatherDisplay:10.37,2013-02-12 10:51:00,
2013-02-12 04:56:00,20.4,17.1,30.00,SW,228,1.1,0.0,87,0.00,-SN,,0.00,0.0,WeatherDisplay:10.37,2013-02-12 10:56:00,
2013-02-12 05:01:00,20.4,17.1,30.00,SW,229,1.0,1.0,87,0.00,OVC,,0.00,0.0,WeatherDisplay:10.37,2013-02-12 11:01:00,
2013-02-12 05:06:00,20.3,17.0,30.00,SSW,213,1.1,0.0,87,0.00,OVC,,0.00,0.0,WeatherDisplay:10.37,2013-02-12 11:06:00,
2013-02-12 05:11:00,20.2,17.0,30.00,WSW,240,0.0,0.7,87,0.00,OVC,,0.00,0.0,WeatherDisplay:10.37,2013-02-12 11:11:00,
2013-02-12 05:16:00,20.2,17.0,30.00,WSW,247,1.1,0.0,87,0.00,OVC,,0.00,0.0,WeatherDisplay:10.37,2013-02-12 11:16:00,
2013-02-12 05:21:00,20.1,16.9,30.00,West,261,2.3,2.3,87,0.00,OVC,,0.00,0.0,WeatherDisplay:10.37,2013-02-12 11:21:00,
2013-02-12 05:26:00,20.0,16.8,30.00,SW,233,1.0,1.7,87,0.00,OVC,,0.00,0.0,WeatherDisplay:10.37,2013-02-12 11:26:00,
2013-02-12 05:31:00,19.9,16.7,30.01,SW,236,0.0,0.0,87,0.00,OVC,,0.00,0.0,WeatherDisplay:10.37,2013-02-12 11:31:00,
2013-02-12 05:36:00,19.9,16.7,30.01,SW,236,0.0,0.0,87,0.00,OVC,,0.00,0.0,WeatherDisplay:10.37,2013-02-12 11:36:00,
2013-02-12 05:41:00,19.9,16.7,30.01,WSW,237,2.3,0.0,87,0.00,OVC,,0.00,0.0,WeatherDisplay:10.37,2013-02-12 11:41:00,
2013-02-12 05:46:00,19.9,16.7,30.01,WSW,237,0.0,0.0,87,0.00,OVC,,0.00,0.0,WeatherDisplay:10.37,2013-02-12 11:46:00,
2013-02-12 05:51:00,19.8,16.6,30.02,WSW,237,2.3,2.3,87,0.00,OVC,,0.00,0.0,WeatherDisplay:10.37,2013-02-12 11:51:00,
2013-02-12 05:56:00,19.6,16.4,30.02,WSW,246,2.3,2.3,87,0.00,OVC,,0.00,0.0,WeatherDisplay:10.37,2013-02-12 11:56:00,
2013-02-12 06:01:00,19.5,16.0,30.02,WSW,247,1.1,1.1,86,0.00,OVC,,0.00,0.0,WeatherDisplay:10.37,2013-02-12 12:01:00,
2013-02-12 06:06:00,19.4,16.2,30.02,WSW,247,1.1,0.0,87,0.00,OVC,,0.00,0.0,WeatherDisplay:10.37,2013-02-12 12:06:00,
2013-02-12 06:11:00,19.5,16.3,30.02,WSW,247,0.0,0.0,87,0.00,OVC,,0.00,0.0,WeatherDisplay:10.37,2013-02-12 12:11:00,
2013-02-12 06:16:00,19.5,16.3,30.02,WSW,247,0.0,0.0,87,0.00,OVC,,0.00,0.0,WeatherDisplay:10.37,2013-02-12 12:16:00,
2013-02-12 06:21:00,19.5,16.3,30.02,WSW,247,1.1,0.0,87,0.00,OVC,,0.00,0.0,WeatherDisplay:10.37,2013-02-12 12:21:00,
2013-02-12 06:26:00,19.4,16.2,30.02,WSW,247,0.0,0.0,87,0.00,OVC,,0.00,0.0,WeatherDisplay:10.37,2013-02-12 12:26:00,
2013-02-12 06:31:00,19.4,16.2,30.02,West,277,0.0,0.0,87,0.00,OVC,,0.00,0.0,WeatherDisplay:10.37,2013-02-12 12:31:00,
2013-02-12 06:36:00,19.3,16.1,30.02,West,264,0.0,0.0,87,0.00,OVC,,0.00,0.0,WeatherDisplay:10.37,2013-02-12 12:36:00,
2013-02-12 06:41:00,19.2,16.0,30.02,West,264,0.0,0.0,87,0.00,OVC,,0.00,0.0,WeatherDisplay:10.37,2013-02-12 12:41:00,
2013-02-12 06:46:00,19.2,16.0,30.02,West,264,0.0,0.0,87,0.00,OVC,,0.00,0.0,WeatherDisplay:10.37,2013-02-12 12:46:00,
2013-02-12 06:51:00,19.1,15.9,30.02,WSW,250,1.1,1.1,87,0.00,OVC,,0.00,0.0,WeatherDisplay:10.37,2013-02-12 12:51:00,
2013-02-12 06:56:00,19.1,15.9,30.02,SSW,211,3.5,3.5,87,0.00,OVC,,0.00,0.0,WeatherDisplay:10.37,2013-02-12 12:56:00,
2013-02-12 07:02:00,19.0,15.8,30.02,SW,221,2.3,2.3,87,0.00,OVC,,0.00,0.0,WeatherDisplay:10.37,2013-02-12 13:02:00,
2013-02-12 07:07:00,18.8,15.3,30.03,West,262,3.5,3.5,86,0.00,OVC,,0.00,0.0,WeatherDisplay:10.37,2013-02-12 13:07:00,
2013-02-12 07:12:00,18.5,15.0,30.03,SW,219,3.5,3.5,86,0.00,OVC,,0.00,0.0,WeatherDisplay:10.37,2013-02-12 13:12:00,
2013-02-12 07:17:00,18.3,14.8,30.03,SW,221,0.0,0.0,86,0.00,OVC,,0.00,0.0,WeatherDisplay:10.37,2013-02-12 13:17:00,
2013-02-12 07:22:00,18.1,14.6,30.03,WSW,243,2.3,2.3,86,0.00,OVC,,0.00,0.0,WeatherDisplay:10.37,2013-02-12 13:22:00,
2013-02-12 07:27:00,17.8,14.3,30.03,West,269,4.6,4.6,86,0.00,OVC,,0.00,0.0,WeatherDisplay:10.37,2013-02-12 13:27:00,
2013-02-12 07:32:00,17.6,14.4,30.03,SW,221,4.6,4.6,87,0.00,OVC,,0.00,0.0,WeatherDisplay:10.37,2013-02-12 13:32:00,
2013-02-12 07:37:00,17.5,14.3,30.02,WSW,239,1.1,1.1,87,0.00,OVC,,0.00,5.0,WeatherDisplay:10.37,2013-02-12 13:37:00,
2013-02-12 07:42:00,17.5,14.3,30.02,West,265,0.0,0.0,87,0.00,OVC,,0.00,5.0,WeatherDisplay:10.37,2013-02-12 13:42:00,
2013-02-12 07:47:00,17.6,14.4,30.02,West,263,0.0,0.0,87,0.00,OVC,,0.00,9.0,WeatherDisplay:10.37,2013-02-12 13:47:00,
2013-02-12 07:52:00,17.7,14.5,30.02,West,270,0.0,0.0,87,0.00,OVC,,0.00,11.0,WeatherDisplay:10.37,2013-02-12 13:52:00,
2013-02-12 07:57:00,17.8,14.6,30.02,West,270,0.0,0.0,87,0.00,OVC,,0.00,12.0,WeatherDisplay:10.37,2013-02-12 13:57:00,
2013-02-12 08:02:00,18.0,14.8,30.03,West,270,0.0,0.0,87,0.00,OVC,,0.00,14.0,WeatherDisplay:10.37,2013-02-12 14:02:00,
2013-02-12 08:07:00,18.1,14.9,30.03,West,270,0.0,0.0,87,0.00,OVC,,0.00,14.0,WeatherDisplay:10.37,2013-02-12 14:07:00,
2013-02-12 08:12:00,18.3,15.1,30.03,WSW,248,3.5,3.5,87,0.00,OVC,,0.00,16.0,WeatherDisplay:10.37,2013-02-12 14:12:00,
2013-02-12 08:17:00,18.5,15.0,30.03,WSW,248,1.1,1.1,86,0.00,-SN,,0.00,19.0,WeatherDisplay:10.37,2013-02-12 14:17:00,
2013-02-12 08:22:00,18.5,15.0,30.02,WSW,248,0.0,0.0,86,0.00,-SN,,0.00,23.0,WeatherDisplay:10.37,2013-02-12 14:22:00,
2013-02-12 08:27:00,18.6,15.1,30.03,SW,228,0.0,0.0,86,0.00,-SN,,0.00,25.0,WeatherDisplay:10.37,2013-02-12 14:27:00,
2013-02-12 08:32:00,18.7,15.2,30.02,SW,228,0.0,0.0,86,0.00,-SN,,0.00,26.0,WeatherDisplay:10.37,2013-02-12 14:32:00,
2013-02-12 08:37:00,18.8,15.3,30.02,NW,317,0.0,0.0,86,0.00,-SN,,0.00,26.0,WeatherDisplay:10.37,2013-02-12 14:37:00,
2013-02-12 08:42:00,18.8,15.0,30.02,South,171,1.1,1.1,85,0.00,-SN,,0.00,28.0,WeatherDisplay:10.37,2013-02-12 14:42:00,
2013-02-12 08:47:00,18.7,15.2,30.02,West,278,3.5,3.5,86,0.00,-SN,,0.00,35.0,WeatherDisplay:10.37,2013-02-12 14:47:00,
2013-02-12 08:52:00,18.7,15.2,30.02,West,261,0.0,0.0,86,0.00,-SN,,0.00,37.0,WeatherDisplay:10.37,2013-02-12 14:52:00,
2013-02-12 08:57:00,18.7,14.9,30.02,South,172,1.1,0.0,85,0.00,-SN,,0.00,40.0,WeatherDisplay:10.37,2013-02-12 14:57:00,
2013-02-12 09:02:00,18.8,15.0,30.02,SSE,163,0.0,0.0,85,0.00,-SN,,0.00,39.0,WeatherDisplay:10.37,2013-02-12 15:02:00,
2013-02-12 09:07:00,18.7,14.9,30.01,SSW,213,2.3,2.3,85,0.00,-SN,,0.00,44.0,WeatherDisplay:10.37,2013-02-12 15:07:00,
2013-02-12 09:12:00,18.6,14.8,30.01,WNW,298,4.6,4.6,85,0.00,-SN,,0.00,54.0,WeatherDisplay:10.37,2013-02-12 15:12:00,
2013-02-12 09:17:00,18.6,14.8,30.01,WSW,249,1.0,1.0,85,0.00,OVC,,0.00,47.0,WeatherDisplay:10.37,2013-02-12 15:17:00,
2013-02-12 09:22:00,18.7,15.2,30.01,WNW,290,1.1,1.1,86,0.00,OVC,,0.00,44.0,WeatherDisplay:10.37,2013-02-12 15:22:00,
2013-02-12 09:27:00,18.8,15.0,30.01,WSW,244,2.3,2.3,85,0.00,OVC,,0.00,44.0,WeatherDisplay:10.37,2013-02-12 15:27:00,
2013-02-12 09:32:00,18.9,15.1,30.01,WSW,240,3.5,3.5,85,0.00,OVC,,0.00,39.0,WeatherDisplay:10.37,2013-02-12 15:32:00,
2013-02-12 09:37:00,19.1,15.6,30.01,SW,234,0.0,0.0,86,0.00,OVC,,0.00,51.0,WeatherDisplay:10.37,2013-02-12 15:37:00,
2013-02-12 09:42:00,19.3,15.5,30.01,WSW,245,4.6,4.6,85,0.00,OVC,,0.00,47.0,WeatherDisplay:10.37,2013-02-12 15:42:00,
2013-02-12 09:47:00,19.4,15.6,30.01,SSW,209,0.0,0.0,85,0.00,OVC,,0.00,47.0,WeatherDisplay:10.37,2013-02-12 15:47:00,
2013-02-12 09:52:00,19.6,16.1,30.00,SW,217,3.5,3.5,86,0.00,OVC,,0.00,53.0,WeatherDisplay:10.37,2013-02-12 15:52:00,
2013-02-12 09:57:00,19.8,16.3,30.00,South,173,0.0,0.0,86,0.00,OVC,,0.00,60.0,WeatherDisplay:10.37,2013-02-12 15:57:00,
2013-02-12 10:02:00,19.9,16.1,30.00,SW,216,2.3,0.0,85,0.00,OVC,,0.00,70.0,WeatherDisplay:10.37,2013-02-12 16:02:00,
2013-02-12 10:07:00,20.2,16.7,30.00,SW,215,0.0,0.0,86,0.00,OVC,,0.00,69.0,WeatherDisplay:10.37,2013-02-12 16:07:00,
2013-02-12 10:12:00,20.2,16.4,30.00,SW,232,3.5,3.5,85,0.00,OVC,,0.00,63.0,WeatherDisplay:10.37,2013-02-12 16:12:00,
2013-02-12 10:17:00,20.3,16.5,30.00,SW,214,0.0,0.0,85,0.00,OVC,,0.00,62.0,WeatherDisplay:10.37,2013-02-12 16:17:00,
2013-02-12 10:22:00,20.4,16.6,30.00,SSE,155,1.1,1.1,85,0.00,OVC,,0.00,69.0,WeatherDisplay:10.37,2013-02-12 16:22:00,
2013-02-12 10:27:00,20.5,16.7,29.99,South,169,1.1,1.1,85,0.00,OVC,,0.00,70.0,WeatherDisplay:10.37,2013-02-12 16:27:00,
2013-02-12 10:32:00,20.6,17.1,29.99,SSW,209,0.0,0.0,86,0.00,OVC,,0.00,72.0,WeatherDisplay:10.37,2013-02-12 16:32:00,
2013-02-12 10:37:00,20.8,17.3,29.99,SSW,209,1.1,1.1,86,0.00,OVC,,0.00,67.0,WeatherDisplay:10.37,2013-02-12 16:37:00,
2013-02-12 10:42:00,21.0,17.2,29.99,SSE,158,0.0,0.0,85,0.00,OVC,,0.00,74.0,WeatherDisplay:10.37,2013-02-12 16:42:00,
2013-02-12 10:47:00,21.1,17.6,29.99,West,265,3.5,3.5,86,0.00,OVC,,0.00,69.0,WeatherDisplay:10.37,2013-02-12 16:47:00,
2013-02-12 10:52:00,21.0,17.5,29.99,SSE,166,1.1,1.1,86,0.00,OVC,,0.00,83.0,WeatherDisplay:10.37,2013-02-12 16:52:00,
2013-02-12 10:57:00,21.1,17.6,29.99,West,264,2.0,2.0,86,0.00,OVC,,0.00,83.0,WeatherDisplay:10.37,2013-02-12 16:57:00,
2013-02-12 11:02:00,21.0,17.5,29.98,SSW,202,4.0,4.0,86,0.00,OVC,,0.00,69.0,WeatherDisplay:10.37,2013-02-12 17:02:00,
2013-02-12 11:07:00,21.2,17.7,29.98,SE,140,1.1,0.0,86,0.00,OVC,,0.00,79.0,WeatherDisplay:10.37,2013-02-12 17:07:00,
2013-02-12 11:12:00,21.4,17.9,29.98,SW,236,1.1,0.0,86,0.00,OVC,,0.00,120.0,WeatherDisplay:10.37,2013-02-12 17:12:00,
2013-02-12 11:17:00,21.8,18.3,29.98,South,178,1.1,1.1,86,0.00,OVC,,0.00,95.0,WeatherDisplay:10.37,2013-02-12 17:17:00,
2013-02-12 11:22:00,21.9,18.1,29.97,WSW,238,2.3,2.3,85,0.00,OVC,,0.00,105.0,WeatherDisplay:10.37,2013-02-12 17:22:00,
2013-02-12 11:27:00,22.1,18.6,29.97,South,176,2.3,2.3,86,0.00,OVC,,0.00,120.0,WeatherDisplay:10.37,2013-02-12 17:27:00,
2013-02-12 11:32:00,22.2,18.7,29.97,SE,146,1.1,0.0,86,0.00,OVC,,0.00,86.0,WeatherDisplay:10.37,2013-02-12 17:32:00,
2013-02-12 11:37:00,22.4,18.8,29.97,SSE,163,0.0,0.1,86,0.00,OVC,,0.00,91.0,WeatherDisplay:10.37,2013-02-12 17:37:00,
2013-02-12 11:42:00,22.4,18.8,29.97,SW,221,3.5,3.5,86,0.00,OVC,,0.00,121.0,WeatherDisplay:10.37,2013-02-12 17:42:00,
2013-02-12 11:47:00,22.4,18.8,29.97,WSW,254,1.1,1.1,86,0.00,OVC,,0.00,102.0,WeatherDisplay:10.37,2013-02-12 17:47:00,
2013-02-12 11:52:00,22.6,19.3,29.96,WSW,240,2.3,2.3,87,0.00,OVC,,0.00,93.0,WeatherDisplay:10.37,2013-02-12 17:52:00,
2013-02-12 11:57:00,22.9,19.3,29.96,WSW,251,1.1,1.1,86,0.00,OVC,,0.00,98.0,WeatherDisplay:10.37,2013-02-12 17:57:00,
2013-02-12 12:02:00,23.0,19.4,29.95,SSW,210,2.3,2.3,86,0.00,BKN,,0.00,91.0,WeatherDisplay:10.37,2013-02-12 18:02:00,
2013-02-12 12:07:00,23.1,19.5,29.95,SSW,199,3.5,0.0,86,0.00,BKN,,0.00,97.0,WeatherDisplay:10.37,2013-02-12 18:07:00,
2013-02-12 12:12:00,23.0,19.4,29.95,WSW,242,2.3,0.0,86,0.00,BKN,,0.00,118.0,WeatherDisplay:10.37,2013-02-12 18:12:00,
2013-02-12 12:17:00,23.3,19.7,29.95,West,269,3.5,0.0,86,0.00,BKN,,0.00,105.0,WeatherDisplay:10.37,2013-02-12 18:17:00,
2013-02-12 12:22:00,23.6,20.3,29.94,WNW,283,0.0,0.7,87,0.00,BKN,,0.00,130.0,WeatherDisplay:10.37,2013-02-12 18:22:00,
2013-02-12 12:27:00,23.9,20.6,29.94,WSW,257,0.0,0.9,87,0.00,BKN,,0.00,132.0,WeatherDisplay:10.37,2013-02-12 18:27:00,
2013-02-12 12:32:00,24.2,20.9,29.94,WSW,256,1.1,1.1,87,0.00,SCT,,0.00,155.0,WeatherDisplay:10.37,2013-02-12 18:32:00,
2013-02-12 12:37:00,24.5,20.9,29.93,SW,214,1.0,1.0,86,0.00,SCT,,0.00,130.0,WeatherDisplay:10.37,2013-02-12 18:37:00,
2013-02-12 12:42:00,24.7,20.8,29.93,SW,225,1.1,0.0,85,0.00,SCT,,0.00,130.0,WeatherDisplay:10.37,2013-02-12 18:42:00,
2013-02-12 12:47:00,25.0,21.1,29.93,SSE,158,1.1,1.1,85,0.00,SCT,,0.00,176.0,WeatherDisplay:10.37,2013-02-12 18:47:00,
2013-02-12 12:52:00,25.0,20.8,29.92,SSE,160,3.5,3.5,84,0.00,SCT,,0.00,158.0,WeatherDisplay:10.37,2013-02-12 18:52:00,
2013-02-12 12:57:00,24.9,20.8,29.92,SSW,199,1.1,1.1,84,0.00,SCT,,0.00,137.0,WeatherDisplay:10.37,2013-02-12 18:57:00,
2013-02-12 13:03:00,25.2,21.3,29.92,SE,142,1.1,1.1,85,0.00,FEW,,0.00,195.0,WeatherDisplay:10.37,2013-02-12 19:03:00,
2013-02-12 13:08:00,25.3,21.1,29.92,SSE,152,5.8,5.8,84,0.00,FEW,,0.00,174.0,WeatherDisplay:10.37,2013-02-12 19:08:00,
2013-02-12 13:13:00,25.5,21.6,29.91,SE,144,1.1,1.1,85,0.00,FEW,,0.00,158.0,WeatherDisplay:10.37,2013-02-12 19:13:00,
2013-02-12 13:18:00,25.6,21.7,29.91,WSW,237,3.5,3.5,85,0.00,FEW,,0.00,160.0,WeatherDisplay:10.37,2013-02-12 19:18:00,
2013-02-12 13:23:00,25.7,21.8,29.91,South,172,2.3,2.3,85,0.00,FEW,,0.00,121.0,WeatherDisplay:10.37,2013-02-12 19:23:00,
2013-02-12 13:28:00,25.8,21.9,29.90,WSW,257,2.3,2.3,85,0.00,FEW,,0.00,153.0,WeatherDisplay:10.37,2013-02-12 19:28:00,
2013-02-12 13:33:00,26.2,22.3,29.90,SW,218,1.1,0.0,85,0.00,FEW,,0.00,167.0,WeatherDisplay:10.37,2013-02-12 19:33:00,
2013-02-12 13:38:00,26.7,22.5,29.90,WSW,252,3.5,3.5,84,0.00,FEW,,0.00,132.0,WeatherDisplay:10.37,2013-02-12 19:38:00,
2013-02-12 13:43:00,27.0,22.8,29.90,ESE,122,2.0,2.0,84,0.00,FEW,,0.00,510.0,WeatherDisplay:10.37,2013-02-12 19:43:00,
2013-02-12 13:48:00,27.2,22.7,29.90,SE,128,1.0,0.0,83,0.00,FEW,,0.00,179.0,WeatherDisplay:10.37,2013-02-12 19:48:00,
2013-02-12 13:53:00,27.4,22.9,29.89,West,276,2.3,0.0,83,0.00,FEW,,0.00,464.0,WeatherDisplay:10.37,2013-02-12 19:53:00,
2013-02-12 13:58:00,27.7,23.2,29.89,SE,134,1.1,1.1,83,0.00,FEW,,0.00,468.0,WeatherDisplay:10.37,2013-02-12 19:58:00,
2013-02-12 14:03:00,27.9,23.4,29.89,West,277,3.5,3.5,83,0.00,FEW,,0.00,362.0,WeatherDisplay:10.37,2013-02-12 20:03:00,
2013-02-12 14:08:00,27.9,23.1,29.89,SSW,203,5.8,5.8,82,0.00,FEW,,0.00,102.0,WeatherDisplay:10.37,2013-02-12 20:08:00,
2013-02-12 14:13:00,27.6,22.8,29.89,WSW,252,3.5,3.5,82,0.00,FEW,,0.00,174.0,WeatherDisplay:10.37,2013-02-12 20:13:00,
2013-02-12 14:18:00,27.6,23.1,29.88,West,269,4.0,0.0,83,0.00,CLR,,0.00,128.0,WeatherDisplay:10.37,2013-02-12 20:18:00,
2013-02-12 14:23:00,27.8,23.3,29.88,SSW,204,6.0,6.0,83,0.00,CLR,,0.00,104.0,WeatherDisplay:10.37,2013-02-12 20:23:00,
2013-02-12 14:28:00,27.9,23.4,29.88,SE,145,3.5,3.5,83,0.00,CLR,,0.00,183.0,WeatherDisplay:10.37,2013-02-12 20:28:00,
2013-02-12 14:33:00,28.2,23.7,29.88,South,174,3.5,3.5,83,0.00,CLR,,0.00,415.0,WeatherDisplay:10.37,2013-02-12 20:33:00,
2013-02-12 14:38:00,28.4,23.9,29.88,WSW,251,1.1,0.0,83,0.00,CLR,,0.00,316.0,WeatherDisplay:10.37,2013-02-12 20:38:00,
2013-02-12 14:43:00,28.7,23.9,29.88,WSW,247,4.0,4.0,82,0.00,CLR,,0.00,149.0,WeatherDisplay:10.37,2013-02-12 20:43:00,
2013-02-12 14:48:00,28.6,23.8,29.88,SE,128,2.3,2.3,82,0.00,CLR,,0.00,316.0,WeatherDisplay:10.37,2013-02-12 20:48:00,
2013-02-12 14:53:00,28.8,24.0,29.88,West,263,5.8,5.8,82,0.00,CLR,,0.00,366.0,WeatherDisplay:10.37,2013-02-12 20:53:00,
2013-02-12 14:58:00,28.5,23.4,29.87,SSW,200,6.9,6.9,81,0.00,CLR,,0.00,76.0,WeatherDisplay:10.37,2013-02-12 20:58:00,
2013-02-12 15:03:00,28.4,23.6,29.87,SSW,192,3.5,3.5,82,0.00,BKN,,0.00,98.0,WeatherDisplay:10.37,2013-02-12 21:03:00,
2013-02-12 15:08:00,28.5,24.0,29.87,SSE,149,1.0,1.0,83,0.00,BKN,,0.00,120.0,WeatherDisplay:10.37,2013-02-12 21:08:00,
2013-02-12 15:13:00,28.7,24.2,29.87,South,174,1.1,1.1,83,0.00,BKN,,0.00,135.0,WeatherDisplay:10.37,2013-02-12 21:13:00,
2013-02-12 15:18:00,28.7,24.5,29.87,SSW,200,1.1,1.1,84,0.00,BKN,,0.00,86.0,WeatherDisplay:10.37,2013-02-12 21:18:00,
2013-02-12 15:23:00,28.7,24.2,29.87,SSW,205,2.3,2.3,83,0.00,BKN,,0.00,192.0,WeatherDisplay:10.37,2013-02-12 21:23:00,
2013-02-12 15:28:00,28.7,24.2,29.87,SE,138,1.1,0.0,83,0.00,BKN,,0.00,236.0,WeatherDisplay:10.37,2013-02-12 21:28:00,
2013-02-12 15:33:00,28.7,24.2,29.87,South,178,2.3,2.3,83,0.00,BKN,,0.00,69.0,WeatherDisplay:10.37,2013-02-12 21:33:00,
2013-02-12 15:38:00,28.6,24.1,29.87,SE,143,2.3,2.3,83,0.00,BKN,,0.00,46.0,WeatherDisplay:10.37,2013-02-12 21:38:00,
2013-02-12 15:43:00,28.5,24.3,29.87,SE,143,1.1,0.0,84,0.00,BKN,,0.00,56.0,WeatherDisplay:10.37,2013-02-12 21:43:00,
2013-02-12 15:48:00,28.4,23.9,29.87,SE,143,3.5,3.5,83,0.00,BKN,,0.00,42.0,WeatherDisplay:10.37,2013-02-12 21:48:00,
2013-02-12 15:53:00,28.5,24.3,29.87,SE,143,0.0,0.0,84,0.00,BKN,,0.00,40.0,WeatherDisplay:10.37,2013-02-12 21:53:00,
2013-02-12 15:58:00,28.4,24.2,29.87,SE,143,3.0,3.0,84,0.00,BKN,,0.00,47.0,WeatherDisplay:10.37,2013-02-12 21:58:00,
2013-02-12 16:03:00,28.4,23.9,29.87,SE,143,4.6,4.6,83,0.00,CLR,,0.00,40.0,WeatherDisplay:10.37,2013-02-12 22:03:00,
2013-02-12 16:08:00,28.4,23.9,29.87,SE,143,2.3,2.3,83,0.00,CLR,,0.00,39.0,WeatherDisplay:10.37,2013-02-12 22:08:00,
2013-02-12 16:16:00,28.3,24.1,29.87,SE,143,1.1,2.5,84,0.00,CLR,,0.00,30.0,WeatherDisplay:10.37,2013-02-12 22:16:00,
2013-02-12 16:21:00,28.2,24.0,29.87,SE,143,1.1,0.0,84,0.00,CLR,,0.00,39.0,WeatherDisplay:10.37,2013-02-12 22:21:00,
2013-02-12 16:26:00,28.1,23.9,29.87,SE,143,1.1,0.0,84,0.00,CLR,,0.00,39.0,WeatherDisplay:10.37,2013-02-12 22:26:00,
2013-02-12 16:32:00,27.9,23.7,29.87,SE,143,2.3,0.0,84,0.00,CLR,,0.00,23.0,WeatherDisplay:10.37,2013-02-12 22:32:00,
2013-02-12 16:37:00,27.8,23.9,29.87,SE,143,3.5,3.5,85,0.00,CLR,,0.00,19.0,WeatherDisplay:10.37,2013-02-12 22:37:00,
2013-02-12 16:42:00,27.6,23.7,29.86,SE,143,2.3,0.0,85,0.00,CLR,,0.00,18.0,WeatherDisplay:10.37,2013-02-12 22:42:00,
2013-02-12 16:47:00,27.6,23.7,29.86,SE,143,3.0,3.0,85,0.00,CLR,,0.00,16.0,WeatherDisplay:10.37,2013-02-12 22:47:00,
2013-02-12 16:52:00,27.6,23.7,29.86,SE,143,0.0,0.0,85,0.00,CLR,,0.00,14.0,WeatherDisplay:10.37,2013-02-12 22:52:00,
2013-02-12 16:57:00,27.4,23.5,29.86,SE,143,1.1,0.0,85,0.00,CLR,,0.00,12.0,WeatherDisplay:10.37,2013-02-12 22:57:00,
2013-02-12 17:02:00,27.2,23.6,29.86,SE,143,1.0,1.0,86,0.00,CLR,,0.00,9.0,WeatherDisplay:10.37,2013-02-12 23:02:00,
2013-02-12 17:07:00,27.1,23.2,29.86,SE,143,0.0,0.0,85,0.00,CLR,,0.00,7.0,WeatherDisplay:10.37,2013-02-12 23:07:00,
2013-02-12 17:12:00,27.0,23.4,29.86,SE,143,0.0,0.0,86,0.00,CLR,,0.00,5.0,WeatherDisplay:10.37,2013-02-12 23:12:00,
2013-02-12 17:17:00,26.8,22.9,29.86,SE,143,1.1,0.0,85,0.00,CLR,,0.00,0.0,WeatherDisplay:10.37,2013-02-12 23:17:00,
2013-02-12 17:22:00,26.7,23.1,29.86,SE,143,0.0,0.0,86,0.00,CLR,,0.00,0.0,WeatherDisplay:10.37,2013-02-12 23:22:00,
2013-02-12 17:27:00,26.6,23.0,29.86,SE,143,0.0,0.0,86,0.00,CLR,,0.00,0.0,WeatherDisplay:10.37,2013-02-12 23:27:00,
2013-02-12 17:32:00,26.1,22.2,29.86,SE,143,0.0,0.0,85,0.00,CLR,,0.00,0.0,WeatherDisplay:10.37,2013-02-12 23:32:00,
2013-02-12 17:37:00,25.5,21.6,29.87,SE,143,0.0,0.2,85,0.00,CLR,,0.00,0.0,WeatherDisplay:10.37,2013-02-12 23:37:00,
2013-02-12 17:42:00,24.9,21.3,29.87,SE,143,0.0,0.0,86,0.00,CLR,,0.00,0.0,WeatherDisplay:10.37,2013-02-12 23:42:00,
2013-02-12 17:47:00,24.5,20.9,29.87,SE,143,0.0,0.0,86,0.00,CLR,,0.00,0.0,WeatherDisplay:10.37,2013-02-12 23:47:00,
2013-02-12 17:52:00,23.9,20.3,29.87,SE,143,0.0,0.0,86,0.00,CLR,,0.00,0.0,WeatherDisplay:10.37,2013-02-12 23:52:00,
2013-02-12 17:57:00,23.3,20.0,29.87,SE,143,0.0,0.0,87,0.00,CLR,,0.00,0.0,WeatherDisplay:10.37,2013-02-12 23:57:00,
2013-02-12 18:02:00,22.9,19.6,29.87,SE,143,0.0,0.0,87,0.00,CLR,,0.00,0.0,WeatherDisplay:10.37,2013-02-13 00:02:00,
2013-02-12 18:07:00,22.3,19.0,29.87,SE,143,0.0,0.0,87,0.00,CLR,,0.00,0.0,WeatherDisplay:10.37,2013-02-13 00:07:00,
2013-02-12 18:12:00,21.9,19.2,29.87,SE,143,0.0,0.0,89,0.00,CLR,,0.00,0.0,WeatherDisplay:10.37,2013-02-13 00:12:00,
2013-02-12 18:17:00,21.5,18.8,29.87,SE,143,0.0,0.0,89,0.00,CLR,,0.00,0.0,WeatherDisplay:10.37,2013-02-13 00:17:00,
2013-02-12 18:22:00,21.0,18.0,29.87,SE,143,0.0,0.0,88,0.00,CLR,,0.00,0.0,WeatherDisplay:10.37,2013-02-13 00:22:00,
2013-02-12 18:27:00,20.6,17.6,29.87,SE,143,0.0,0.0,88,0.00,CLR,,0.00,0.0,WeatherDisplay:10.37,2013-02-13 00:27:00,
2013-02-12 18:32:00,20.3,17.6,29.87,SE,143,0.0,0.0,89,0.00,CLR,,0.00,0.0,WeatherDisplay:10.37,2013-02-13 00:32:00,
2013-02-12 18:37:00,20.0,17.3,29.87,SE,143,0.0,0.0,89,0.00,CLR,,0.00,0.0,WeatherDisplay:10.37,2013-02-13 00:37:00,
2013-02-12 18:42:00,19.6,16.9,29.87,SE,143,0.0,0.0,89,0.00,CLR,,0.00,0.0,WeatherDisplay:10.37,2013-02-13 00:42:00,
2013-02-12 18:47:00,19.3,16.6,29.87,SE,143,0.0,0.0,89,0.00,CLR,,0.00,0.0,WeatherDisplay:10.37,2013-02-13 00:47:00,
2013-02-12 18:52:00,18.8,16.1,29.87,SE,143,0.0,0.0,89,0.00,CLR,,0.00,0.0,WeatherDisplay:10.37,2013-02-13 00:52:00,
2013-02-12 18:57:00,18.4,15.7,29.87,SE,143,0.0,0.0,89,0.00,CLR,,0.00,0.0,WeatherDisplay:10.37,2013-02-13 00:57:00,
2013-02-12 19:02:00,18.0,15.3,29.87,SE,143,0.0,0.0,89,0.00,CLR,,0.00,0.0,WeatherDisplay:10.37,2013-02-13 01:02:00,
2013-02-12 19:07:00,17.7,15.0,29.86,SE,143,0.0,0.0,89,0.00,CLR,,0.00,0.0,WeatherDisplay:10.37,2013-02-13 01:07:00,
2013-02-12 19:13:00,17.5,14.8,29.86,SE,143,0.0,0.0,89,0.00,CLR,,0.00,0.0,WeatherDisplay:10.37,2013-02-13 01:13:00,
2013-02-12 19:18:00,17.3,14.6,29.86,SE,143,0.0,0.0,89,0.00,CLR,,0.00,0.0,WeatherDisplay:10.37,2013-02-13 01:18:00,
2013-02-12 19:23:00,17.1,14.2,29.86,SE,143,0.0,0.0,88,0.00,CLR,,0.00,0.0,WeatherDisplay:10.37,2013-02-13 01:23:00,
2013-02-12 19:28:00,16.7,13.8,29.86,SE,143,0.0,0.0,88,0.00,CLR,,0.00,0.0,WeatherDisplay:10.37,2013-02-13 01:28:00,
2013-02-12 19:33:00,16.4,13.5,29.86,SE,143,0.0,0.0,88,0.00,CLR,,0.00,0.0,WeatherDisplay:10.37,2013-02-13 01:33:00,
2013-02-12 19:38:00,16.2,13.5,29.85,SE,143,0.0,0.0,89,0.00,CLR,,0.00,0.0,WeatherDisplay:10.37,2013-02-13 01:38:00,
2013-02-12 19:43:00,16.0,13.3,29.85,SE,143,0.0,0.0,89,0.00,CLR,,0.00,0.0,WeatherDisplay:10.37,2013-02-13 01:43:00,
2013-02-12 19:48:00,15.8,12.9,29.85,SE,143,0.0,0.0,88,0.00,CLR,,0.00,0.0,WeatherDisplay:10.37,2013-02-13 01:48:00,
2013-02-12 19:53:00,15.7,13.0,29.85,SE,143,0.0,0.0,89,0.00,CLR,,0.00,0.0,WeatherDisplay:10.37,2013-02-13 01:53:00,
2013-02-12 19:58:00,15.6,12.9,29.85,SE,143,0.0,0.0,89,0.00,CLR,,0.00,0.0,WeatherDisplay:10.37,2013-02-13 01:58:00,
2013-02-12 20:03:00,15.6,12.9,29.85,SE,143,0.0,0.0,89,0.00,CLR,,0.00,0.0,WeatherDisplay:10.37,2013-02-13 02:03:00,
2013-02-12 20:08:00,15.4,12.7,29.85,SE,143,0.0,0.0,89,0.00,CLR,,0.00,0.0,WeatherDisplay:10.37,2013-02-13 02:08:00,
2013-02-12 20:13:00,15.2,12.3,29.84,SE,143,0.0,0.0,88,0.00,CLR,,0.00,0.0,WeatherDisplay:10.37,2013-02-13 02:13:00,
2013-02-12 20:18:00,15.0,12.1,29.84,SE,143,0.0,0.0,88,0.00,CLR,,0.00,0.0,WeatherDisplay:10.37,2013-02-13 02:18:00,
2013-02-12 20:23:00,14.7,11.8,29.84,SE,143,0.0,0.0,88,0.00,CLR,,0.00,0.0,WeatherDisplay:10.37,2013-02-13 02:23:00,
2013-02-12 20:28:00,14.5,11.6,29.85,SE,143,0.0,0.0,88,0.00,CLR,,0.00,0.0,WeatherDisplay:10.37,2013-02-13 02:28:00,
2013-02-12 20:33:00,14.3,11.4,29.85,SE,143,0.0,0.0,88,0.00,CLR,,0.00,0.0,WeatherDisplay:10.37,2013-02-13 02:33:00,
2013-02-12 20:38:00,14.3,11.7,29.85,SE,143,0.0,0.0,89,0.00,CLR,,0.00,0.0,WeatherDisplay:10.37,2013-02-13 02:38:00,
2013-02-12 20:43:00,14.0,11.1,29.85,SE,143,0.0,0.0,88,0.00,CLR,,0.00,0.0,WeatherDisplay:10.37,2013-02-13 02:43:00,
2013-02-12 20:48:00,13.6,10.7,29.85,SE,143,0.0,0.0,88,0.00,CLR,,0.00,0.0,WeatherDisplay:10.37,2013-02-13 02:48:00,
2013-02-12 20:53:00,13.2,10.3,29.85,SE,143,0.0,0.0,88,0.00,CLR,,0.00,0.0,WeatherDisplay:10.37,2013-02-13 02:53:00,
2013-02-12 20:58:00,13.0,10.1,29.85,SE,143,0.0,0.0,88,0.00,CLR,,0.00,0.0,WeatherDisplay:10.37,2013-02-13 02:58:00,
2013-02-12 21:03:00,12.6,9.5,29.85,SE,143,0.0,0.0,87,0.00,CLR,,0.00,0.0,WeatherDisplay:10.37,2013-02-13 03:03:00,
2013-02-12 21:08:00,12.3,9.2,29.85,SE,143,0.0,0.0,87,0.00,CLR,,0.00,0.0,WeatherDisplay:10.37,2013-02-13 03:08:00,
2013-02-12 21:13:00,12.3,9.4,29.85,SE,143,0.0,0.0,88,0.00,CLR,,0.00,0.0,WeatherDisplay:10.37,2013-02-13 03:13:00,
2013-02-12 21:18:00,12.2,9.3,29.85,SE,143,0.0,0.0,88,0.00,CLR,,0.00,0.0,WeatherDisplay:10.37,2013-02-13 03:18:00,
2013-02-12 21:23:00,12.2,9.3,29.84,SE,143,0.0,0.0,88,0.00,CLR,,0.00,0.0,WeatherDisplay:10.37,2013-02-13 03:23:00,
2013-02-12 21:28:00,12.2,9.3,29.84,SE,143,0.0,0.0,88,0.00,CLR,,0.00,0.0,WeatherDisplay:10.37,2013-02-13 03:28:00,
2013-02-12 21:33:00,12.1,9.2,29.84,SE,143,0.0,0.0,88,0.00,CLR,,0.00,0.0,WeatherDisplay:10.37,2013-02-13 03:33:00,
2013-02-12 21:38:00,12.0,9.1,29.84,SE,143,0.0,0.0,88,0.00,CLR,,0.00,0.0,WeatherDisplay:10.37,2013-02-13 03:38:00,
2013-02-12 21:43:00,11.9,9.0,29.84,SE,143,0.0,0.0,88,0.00,CLR,,0.00,0.0,WeatherDisplay:10.37,2013-02-13 03:43:00,
2013-02-12 21:48:00,11.9,9.0,29.84,SE,143,0.0,0.0,88,0.00,CLR,,0.00,0.0,WeatherDisplay:10.37,2013-02-13 03:48:00,
2013-02-12 21:53:00,11.9,9.0,29.84,SE,143,0.0,0.0,88,0.00,CLR,,0.00,0.0,WeatherDisplay:10.37,2013-02-13 03:53:00,
2013-02-12 21:58:00,11.6,8.7,29.84,SE,143,0.0,0.0,88,0.00,CLR,,0.00,0.0,WeatherDisplay:10.37,2013-02-13 03:58:00,
2013-02-12 22:03:00,11.3,8.2,29.84,SE,143,0.0,0.0,87,0.00,BKN,,0.00,0.0,WeatherDisplay:10.37,2013-02-13 04:03:00,
2013-02-12 22:08:00,11.2,8.3,29.84,SE,143,0.0,0.0,88,0.00,BKN,,0.00,0.0,WeatherDisplay:10.37,2013-02-13 04:08:00,
2013-02-12 22:13:00,11.3,8.4,29.84,SE,143,0.0,0.0,88,0.00,BKN,,0.00,0.0,WeatherDisplay:10.37,2013-02-13 04:13:00,
2013-02-12 22:18:00,11.3,8.4,29.84,SE,143,0.0,0.0,88,0.00,BKN,,0.00,0.0,WeatherDisplay:10.37,2013-02-13 04:18:00,
2013-02-12 22:23:00,11.3,8.4,29.84,SE,143,0.0,0.0,88,0.00,BKN,,0.00,0.0,WeatherDisplay:10.37,2013-02-13 04:23:00,
2013-02-12 22:28:00,11.3,8.4,29.83,SE,143,0.0,0.0,88,0.00,BKN,,0.00,0.0,WeatherDisplay:10.37,2013-02-13 04:28:00,
2013-02-12 22:33:00,11.4,8.5,29.83,SE,143,0.0,0.0,88,0.00,BKN,,0.00,0.0,WeatherDisplay:10.37,2013-02-13 04:33:00,
2013-02-12 22:38:00,11.4,8.5,29.83,SE,143,0.0,0.0,88,0.00,BKN,,0.00,0.0,WeatherDisplay:10.37,2013-02-13 04:38:00,
2013-02-12 22:43:00,11.4,8.5,29.83,SE,143,0.0,0.0,88,0.00,BKN,,0.00,0.0,WeatherDisplay:10.37,2013-02-13 04:43:00,
2013-02-12 22:48:00,11.5,8.9,29.83,SE,143,0.0,0.0,89,0.00,BKN,,0.00,0.0,WeatherDisplay:10.37,2013-02-13 04:48:00,
2013-02-12 22:53:00,11.7,9.1,29.83,SE,143,0.0,0.0,89,0.00,BKN,,0.00,0.0,WeatherDisplay:10.37,2013-02-13 04:53:00,
2013-02-12 22:58:00,11.8,9.2,29.83,SE,143,0.0,0.0,89,0.00,BKN,,0.00,0.0,WeatherDisplay:10.37,2013-02-13 04:58:00,
2013-02-12 23:00:00,11.9,9.3,29.83,SE,143,0.0,0.0,89,0.00,BKN,,0.00,0.0,WeatherDisplay:10.37,2013-02-13 05:00:00,
2013-02-12 23:05:00,12.2,9.6,29.82,SE,143,0.0,0.0,89,0.00,BKN,,0.00,0.0,WeatherDisplay:10.37,2013-02-13 05:05:00,
2013-02-12 23:11:00,12.5,9.9,29.83,SE,143,0.0,0.0,89,0.00,BKN,,0.00,0.0,WeatherDisplay:10.37,2013-02-13 05:11:00,
2013-02-12 23:16:00,12.7,10.1,29.82,SE,143,0.0,0.0,89,0.00,BKN,,0.00,0.0,WeatherDisplay:10.37,2013-02-13 05:16:00,
2013-02-12 23:21:00,12.9,10.3,29.82,SE,143,0.0,0.0,89,0.00,BKN,,0.00,0.0,WeatherDisplay:10.37,2013-02-13 05:21:00,
2013-02-12 23:26:00,13.0,10.4,29.82,SE,143,0.0,0.0,89,0.00,BKN,,0.00,0.0,WeatherDisplay:10.37,2013-02-13 05:26:00,
2013-02-12 23:31:00,13.0,10.1,29.82,SE,143,0.0,0.0,88,0.00,BKN,,0.00,0.0,WeatherDisplay:10.37,2013-02-13 05:31:00,
2013-02-12 23:36:00,13.1,10.5,29.82,SE,143,0.0,0.0,89,0.00,BKN,,0.00,0.0,WeatherDisplay:10.37,2013-02-13 05:36:00,
2013-02-12 23:41:00,13.1,10.5,29.82,SE,143,0.0,0.0,89,0.00,BKN,,0.00,0.0,WeatherDisplay:10.37,2013-02-13 05:41:00,
2013-02-12 23:46:00,13.3,10.7,29.82,SE,143,0.0,0.0,89,0.00,BKN,,0.00,0.0,WeatherDisplay:10.37,2013-02-13 05:46:00,
2013-02-12 23:51:00,13.4,10.8,29.81,SE,143,0.0,0.0,89,0.00,BKN,,0.00,0.0,WeatherDisplay:10.37,2013-02-13 05:51:00,
2013-02-12 23:56:00,13.4,10.8,29.81,SE,143,0.0,0.0,89,0.00,BKN,,0.00,0.0,WeatherDisplay:10.37,2013-02-13 05:56:00,